Time;durP1;ratioP1;P1;durP2;ratioP2;P2;SDS_P1;SDS_P2;PMS_P1;PMS_P2;Temp;Humidity;BMP_temperature;BMP_pressure;BME280_temperature;BME280_humidity;BME280_pressure;Samples;Min_cycle;Max_cycle;Signal;HPM_P1;HPM_P2
2022/09/04 00:01:40;;;;;;;1.85;1.75;;;;;;;14.97;54.05;100997.44;6181561;23;20013;-86
2022/09/04 00:04:30;;;;;;;2.55;1.95;;;;;;;14.93;54.35;100998.38;6131240;23;20029;-85
2022/09/04 00:07:15;;;;;;;5.47;1.60;;;;;;;14.91;54.37;101006.34;6131318;23;20021;-85
2022/09/04 00:10:16;;;;;;;3.20;1.90;;;;;;;14.86;54.41;101002.94;6156803;23;20036;-87
2022/09/04 00:12:53;;;;;;;3.85;1.75;;;;;;;14.83;54.50;101001.22;6155026;23;20104;-85
2022/09/04 00:15:35;;;;;;;4.18;1.73;;;;;;;14.80;54.44;101011.00;6132695;23;20032;-86
2022/09/04 00:18:19;;;;;;;2.45;1.83;;;;;;;14.76;54.68;101011.91;6157392;23;20137;-86
2022/09/04 00:20:56;;;;;;;2.85;1.80;;;;;;;14.71;54.94;101015.53;6133207;23;20084;-86
2022/09/04 00:23:48;;;;;;;2.25;1.67;;;;;;;14.68;55.26;101007.69;6182881;23;20060;-86
2022/09/04 00:26:59;;;;;;;2.80;1.42;;;;;;;14.66;55.28;101009.47;6109422;23;20056;-84
2022/09/04 00:30:00;;;;;;;2.13;1.58;;;;;;;14.62;55.44;101009.56;6157954;23;20029;-87
2022/09/04 00:33:02;;;;;;;3.67;1.42;;;;;;;14.59;55.74;101014.88;6130885;23;20409;-85
2022/09/04 00:35:34;;;;;;;2.30;2.00;;;;;;;14.55;55.90;100999.13;6183043;23;20100;-84
2022/09/04 00:38:34;;;;;;;1.70;1.45;;;;;;;14.55;56.12;101011.44;6157754;23;20016;-86
2022/09/04 00:41:49;;;;;;;2.60;1.50;;;;;;;14.51;56.13;101012.38;6158135;23;20021;-86
2022/09/04 00:44:27;;;;;;;4.03;1.80;;;;;;;14.50;56.35;101014.16;6157160;23;20461;-85
2022/09/04 00:47:31;;;;;;;3.42;1.70;;;;;;;14.46;56.68;101022.16;6185622;23;20040;-86
2022/09/04 00:50:10;;;;;;;4.75;1.73;;;;;;;14.39;56.67;101011.75;6157826;23;20136;-85
2022/09/04 00:53:05;;;;;;;4.68;1.48;;;;;;;14.34;57.10;101005.69;6157755;23;20047;-86
2022/09/04 00:56:14;;;;;;;3.45;1.80;;;;;;;14.29;57.33;101004.91;6156734;23;20487;-86
2022/09/04 00:59:16;;;;;;;3.10;2.05;;;;;;;14.28;57.42;101008.44;6132448;23;20025;-85
2022/09/04 01:01:45;;;;;;;2.22;1.25;;;;;;;14.22;56.99;101012.06;6158733;23;20021;-85
2022/09/04 01:04:38;;;;;;;2.40;1.65;;;;;;;14.19;57.40;101012.09;6158157;23;20049;-87
2022/09/04 01:07:43;;;;;;;1.75;1.65;;;;;;;14.16;57.42;101012.16;6157741;23;20336;-84
2022/09/04 01:10:42;;;;;;;3.22;2.15;;;;;;;14.12;57.67;101020.13;6152224;23;20025;-85
2022/09/04 01:13:21;;;;;;;3.50;1.30;;;;;;;14.10;57.68;101019.31;6140994;23;20029;-86
2022/09/04 01:16:12;;;;;;;5.03;1.60;;;;;;;14.06;58.36;101018.50;6152528;23;20413;-85
2022/09/04 01:19:38;;;;;;;1.35;1.25;;;;;;;14.06;58.21;101014.09;6128683;23;20137;-85
2022/09/04 01:22:21;;;;;;;4.00;1.73;;;;;;;14.02;58.16;101016.81;6092266;23;20025;-84
2022/09/04 01:25:04;;;;;;;6.95;2.60;;;;;;;14.01;58.92;101015.91;6129096;23;20092;-86
2022/09/04 01:28:04;;;;;;;2.00;1.77;;;;;;;13.99;58.77;101019.50;6130897;23;20006;-86
2022/09/04 01:30:51;;;;;;;1.55;1.40;;;;;;;13.93;58.75;101028.34;6131624;23;20024;-86
2022/09/04 01:33:48;;;;;;;1.98;1.75;;;;;;;13.94;59.34;101029.25;6129359;23;20055;-86
2022/09/04 01:36:26;;;;;;;2.95;2.03;;;;;;;13.92;59.38;101026.63;6155126;23;20024;-85
2022/09/04 01:38:57;;;;;;;3.25;1.85;;;;;;;13.93;58.95;101031.00;6129437;23;20029;-85
2022/09/04 01:41:34;;;;;;;2.10;2.00;;;;;;;13.90;59.26;101034.53;6153632;23;20025;-86
2022/09/04 01:44:06;;;;;;;1.90;1.67;;;;;;;13.88;59.05;101036.34;6128005;23;20031;-85
2022/09/04 01:46:46;;;;;;;3.08;1.48;;;;;;;13.84;59.65;101044.31;6152014;23;20021;-85
2022/09/04 01:49:38;;;;;;;3.70;2.30;;;;;;;13.82;60.26;101035.56;6151980;23;20032;-85
2022/09/04 01:52:07;;;;;;;8.48;2.72;;;;;;;13.75;59.77;101032.16;6126782;23;20017;-85
2022/09/04 01:55:14;;;;;;;3.15;2.33;;;;;;;13.72;60.48;101038.34;6152187;23;20029;-85
2022/09/04 01:57:50;;;;;;;2.80;2.33;;;;;;;13.67;60.52;101036.69;6153724;23;20029;-85
2022/09/04 02:00:21;;;;;;;4.88;1.75;;;;;;;13.62;60.42;101036.75;6128661;23;20033;-85
2022/09/04 02:03:32;;;;;;;2.25;1.83;;;;;;;13.61;60.94;101042.91;6129770;23;20017;-85
2022/09/04 02:06:16;;;;;;;1.70;1.60;;;;;;;13.57;61.50;101049.09;6154993;23;20023;-86
2022/09/04 02:09:36;;;;;;;3.58;1.83;;;;;;;13.54;61.24;101050.00;6154656;23;20033;-85
2022/09/04 02:12:08;;;;;;;3.28;1.90;;;;;;;13.48;61.60;101055.38;6155171;23;20488;-86
2022/09/04 02:15:18;;;;;;;1.88;1.70;;;;;;;13.50;61.83;101047.47;6157476;23;20068;-86
2022/09/04 02:18:06;;;;;;;1.58;1.40;;;;;;;13.43;61.74;101051.94;6129506;23;20021;-86
2022/09/04 02:20:33;;;;;;;1.77;1.67;;;;;;;13.42;61.53;101051.97;6154266;23;20025;-85
2022/09/04 02:23:29;;;;;;;3.17;1.88;;;;;;;13.39;61.82;101052.88;6153256;23;20017;-85
2022/09/04 02:26:14;;;;;;;2.95;1.60;;;;;;;13.34;62.57;101052.91;6154274;23;20037;-85
2022/09/04 02:29:08;;;;;;;3.15;1.73;;;;;;;13.33;62.50;101055.56;6127914;23;20025;-85
2022/09/04 02:31:58;;;;;;;2.75;1.42;;;;;;;13.28;62.45;101050.34;6130070;23;20013;-85
2022/09/04 02:34:52;;;;;;;2.30;1.77;;;;;;;13.26;62.95;101051.25;6153021;23;20005;-85
2022/09/04 02:37:34;;;;;;;4.05;1.75;;;;;;;13.26;62.57;101059.16;6151343;23;20030;-84
2022/09/04 02:40:31;;;;;;;2.20;1.58;;;;;;;13.24;63.11;101056.53;6128026;23;20112;-87
2022/09/04 02:43:35;;;;;;;1.80;1.70;;;;;;;13.21;63.17;101056.59;6152945;23;20018;-86
2022/09/04 02:46:26;;;;;;;2.50;1.58;;;;;;;13.24;63.27;101052.19;6131269;23;20029;-86
2022/09/04 02:49:48;;;;;;;2.05;1.95;;;;;;;13.21;63.40;101048.72;6131651;23;20024;-87
2022/09/04 02:52:46;;;;;;;2.35;1.60;;;;;;;13.19;63.56;101043.47;6129507;23;20028;-86
2022/09/04 02:55:49;;;;;;;3.70;2.15;;;;;;;13.20;63.48;101046.97;6128894;23;20353;-85
2022/09/04 02:59:12;;;;;;;5.05;2.00;;;;;;;13.15;63.74;101052.28;6125777;23;20026;-85
2022/09/04 03:01:58;;;;;;;3.42;1.55;;;;;;;13.16;63.66;101058.41;6149610;23;20017;-85
2022/09/04 03:04:51;;;;;;;2.70;1.98;;;;;;;13.15;63.46;101059.31;6150323;23;20191;-84
2022/09/04 03:07:40;;;;;;;4.00;1.52;;;;;;;13.13;63.76;101061.06;6126054;23;20051;-85
2022/09/04 03:10:18;;;;;;;2.17;1.98;;;;;;;13.12;64.23;101054.09;6127555;23;20030;-85
2022/09/04 03:12:52;;;;;;;1.75;1.60;;;;;;;13.11;63.89;101053.22;6126712;23;20025;-85
2022/09/04 03:16:11;;;;;;;4.18;2.20;;;;;;;13.07;64.42;101054.13;6126173;23;20467;-85
2022/09/04 03:19:03;;;;;;;5.00;2.00;;;;;;;13.04;64.63;101062.06;6150978;23;20013;-85
2022/09/04 03:21:49;;;;;;;5.68;2.78;;;;;;;13.04;64.55;101059.44;6125432;23;20059;-85
2022/09/04 03:24:36;;;;;;;2.63;2.40;;;;;;;13.01;64.98;101062.09;6150003;23;20084;-85
2022/09/04 03:27:08;;;;;;;3.47;1.73;;;;;;;12.97;64.25;101063.91;6151887;23;20151;-86
2022/09/04 03:29:47;;;;;;;3.80;2.45;;;;;;;12.91;64.82;101064.84;6127187;23;20480;-85
2022/09/04 03:32:26;;;;;;;1.85;1.75;;;;;;;12.89;64.85;101071.00;6150371;23;20017;-85
2022/09/04 03:35:25;;;;;;;2.47;2.03;;;;;;;12.86;64.98;101073.69;6127861;23;20021;-85
2022/09/04 03:38:17;;;;;;;5.28;2.25;;;;;;;12.81;65.24;101063.22;6104768;23;20044;-85
2022/09/04 03:41:28;;;;;;;3.33;1.85;;;;;;;12.79;65.60;101061.47;6155642;23;20017;-85
2022/09/04 03:44:32;;;;;;;1.83;1.45;;;;;;;12.76;65.58;101065.00;6152615;23;20101;-85
2022/09/04 03:47:35;;;;;;;1.57;1.47;;;;;;;12.75;65.93;101071.19;6128362;23;20049;-85
2022/09/04 03:50:26;;;;;;;4.45;2.63;;;;;;;12.71;66.00;101074.69;6126200;23;20022;-85
2022/09/04 03:53:27;;;;;;;2.58;2.10;;;;;;;12.69;66.51;101087.00;6126546;23;20100;-85
2022/09/04 03:56:25;;;;;;;2.90;1.90;;;;;;;12.68;66.64;101087.88;6127395;23;20030;-85
2022/09/04 03:59:08;;;;;;;2.38;2.00;;;;;;;12.64;66.57;101094.06;6124103;23;20457;-86
2022/09/04 04:01:45;;;;;;;3.13;2.50;;;;;;;12.58;66.64;101092.38;6154143;23;20025;-85
2022/09/04 04:04:34;;;;;;;3.80;2.03;;;;;;;12.58;67.08;101098.50;6128441;23;20025;-85
2022/09/04 04:08:02;;;;;;;2.83;2.17;;;;;;;12.57;67.20;101098.50;6155018;23;20384;-85
2022/09/04 04:11:15;;;;;;;3.10;2.05;;;;;;;12.57;67.11;101101.13;6133163;23;20028;-85
2022/09/04 04:14:12;;;;;;;2.55;2.35;;;;;;;12.51;67.10;101104.66;6155252;23;20018;-86
2022/09/04 04:16:58;;;;;;;7.88;3.05;;;;;;;12.49;67.40;101111.72;6128864;23;20021;-85
2022/09/04 04:19:41;;;;;;;2.90;2.40;;;;;;;12.46;67.43;101111.72;6153112;23;20025;-85
2022/09/04 04:22:45;;;;;;;1.88;1.67;;;;;;;12.45;67.75;101117.88;6153009;23;20017;-85
2022/09/04 04:25:58;;;;;;;3.13;2.08;;;;;;;12.46;67.53;101116.13;6153098;23;20036;-85
2022/09/04 04:29:07;;;;;;;1.98;1.85;;;;;;;12.39;67.54;101126.66;6138357;23;20060;-86
2022/09/04 04:32:12;;;;;;;2.85;2.17;;;;;;;12.35;67.68;101130.22;6153891;23;20013;-85
2022/09/04 04:35:27;;;;;;;2.78;2.53;;;;;;;12.34;68.29;101130.22;6153638;23;20062;-85
2022/09/04 04:38:11;;;;;;;2.70;2.17;;;;;;;12.30;68.09;101131.16;6129365;23;20031;-85
2022/09/04 04:41:27;;;;;;;2.42;1.77;;;;;;;12.29;68.54;101130.25;6154144;23;20026;-85
2022/09/04 04:44:11;;;;;;;5.40;2.10;;;;;;;12.27;68.66;101136.41;6100343;23;20085;-85
2022/09/04 04:46:57;;;;;;;2.20;2.00;;;;;;;12.25;68.57;101136.41;6155284;23;20084;-85
2022/09/04 04:50:40;;;;;;;3.15;2.78;;;;;;;12.26;68.77;101138.16;6130271;23;20567;-86
2022/09/04 04:53:31;;;;;;;3.08;2.47;;;;;;;12.25;68.75;101141.66;6099376;23;20025;-86
2022/09/04 04:56:18;;;;;;;2.35;1.85;;;;;;;12.24;68.60;101139.91;6075947;23;20029;-85
2022/09/04 04:59:19;;;;;;;1.95;1.80;;;;;;;12.26;68.63;101146.03;6124073;23;20032;-85
2022/09/04 05:02:29;;;;;;;2.80;2.25;;;;;;;12.27;69.04;101149.53;6131872;23;20025;-85
2022/09/04 05:05:16;;;;;;;2.72;2.42;;;;;;;12.28;68.73;101153.91;6130059;23;20453;-85
2022/09/04 05:07:59;;;;;;;1.98;1.88;;;;;;;12.32;68.43;101148.63;6130097;23;20022;-85
2022/09/04 05:10:42;;;;;;;4.78;2.35;;;;;;;12.34;68.79;101149.47;6154890;23;20655;-86
2022/09/04 05:13:24;;;;;;;5.22;2.75;;;;;;;12.38;68.32;101151.19;6154412;23;20022;-86
2022/09/04 05:16:26;;;;;;;2.22;2.10;;;;;;;12.40;68.87;101159.91;6155868;23;20401;-86
2022/09/04 05:19:03;;;;;;;2.85;1.92;;;;;;;12.44;68.47;101159.88;6157450;23;20461;-86
2022/09/04 05:22:26;;;;;;;3.42;3.13;;;;;;;12.50;68.36;101167.72;6132043;23;20121;-85
2022/09/04 05:25:24;;;;;;;4.07;2.22;;;;;;;12.53;68.08;101170.34;6155411;23;20335;-86
2022/09/04 05:28:23;;;;;;;1.95;1.75;;;;;;;12.54;68.34;101172.94;6130039;23;20025;-86
2022/09/04 05:31:43;;;;;;;3.08;2.05;;;;;;;12.55;68.49;101176.44;6131190;23;20449;-86
2022/09/04 05:34:26;;;;;;;3.65;2.38;;;;;;;12.60;67.96;101190.38;6152503;23;20060;-85
2022/09/04 05:37:51;;;;;;;2.58;2.17;;;;;;;12.63;68.29;101186.88;6129389;23;20227;-84
2022/09/04 05:40:45;;;;;;;3.45;1.92;;;;;;;12.65;68.05;101198.25;6145991;23;20024;-86
2022/09/04 05:43:25;;;;;;;;;;;;;;;12.68;68.15;101193.81;6154344;23;20445;-85
2022/09/04 05:46:45;;;;;;;2.20;1.65;;;;;;;12.72;68.73;101194.66;6130996;23;19920;-85
2022/09/04 05:49:33;;;;;;;6.75;2.53;;;;;;;12.77;67.99;101197.25;6153770;23;20025;-85
2022/09/04 05:52:32;;;;;;;7.03;2.60;;;;;;;12.86;67.76;101194.53;6156492;23;20030;-86
2022/09/04 05:55:21;;;;;;;5.95;2.75;;;;;;;12.91;67.71;101203.25;6127450;23;20414;-85
2022/09/04 05:58:29;;;;;;;2.15;1.98;;;;;;;12.90;67.60;101204.13;6157053;23;20210;-85
2022/09/04 06:01:44;;;;;;;3.35;2.67;;;;;;;12.90;67.60;101206.75;6128893;23;20031;-84
2022/09/04 06:04:48;;;;;;;4.35;2.53;;;;;;;12.95;67.62;101209.34;6126375;23;20025;-85
2022/09/04 06:07:27;;;;;;;2.58;2.38;;;;;;;13.02;67.62;101213.66;6151018;23;20025;-85
2022/09/04 06:10:23;;;;;;;3.33;2.25;;;;;;;13.05;67.62;101209.22;6130115;23;20057;-85
2022/09/04 06:13:38;;;;;;;6.63;2.15;;;;;;;13.13;67.60;101214.41;6158021;23;20021;-85
2022/09/04 06:16:30;;;;;;;3.90;2.60;;;;;;;13.20;67.31;101217.84;6136306;23;20029;-86
2022/09/04 06:19:11;;;;;;;5.10;2.83;;;;;;;13.26;67.20;101225.69;6158364;23;20099;-86
2022/09/04 06:21:50;;;;;;;3.10;2.40;;;;;;;13.37;67.08;101228.22;6157892;23;20057;-86
2022/09/04 06:24:55;;;;;;;3.95;2.75;;;;;;;13.52;66.57;101224.53;6182788;23;20437;-86
2022/09/04 06:28:08;;;;;;;4.47;2.35;;;;;;;13.66;66.07;101224.34;6157290;23;20336;-86
2022/09/04 06:31:06;;;;;;;4.05;2.60;;;;;;;13.83;65.65;101219.75;6134629;23;20274;-85
2022/09/04 06:34:09;;;;;;;4.60;2.58;;;;;;;14.11;65.11;101224.63;6158487;23;20777;-85
2022/09/04 06:37:27;;;;;;;3.28;2.88;;;;;;;14.59;63.25;101225.63;6157860;23;20108;-85
2022/09/04 06:40:26;;;;;;;4.88;1.98;;;;;;;15.18;61.72;101230.81;6142768;23;20233;-85
2022/09/04 06:43:37;;;;;;;4.40;3.10;;;;;;;15.72;59.91;101219.16;6132140;23;20017;-85
2022/09/04 06:46:25;;;;;;;4.65;3.30;;;;;;;16.19;58.49;101217.28;6161172;23;20021;-86
2022/09/04 06:49:28;;;;;;;4.57;2.80;;;;;;;16.62;57.58;101225.06;6161912;23;20407;-85
2022/09/04 06:52:04;;;;;;;5.32;3.15;;;;;;;16.91;56.13;101227.00;6159331;23;20029;-84
2022/09/04 06:55:25;;;;;;;4.93;3.08;;;;;;;17.20;55.24;101220.91;6135489;23;20021;-86
2022/09/04 06:58:17;;;;;;;2.95;2.60;;;;;;;17.59;54.39;101227.78;6098709;23;20025;-85
2022/09/04 07:00:55;;;;;;;11.20;4.07;;;;;;;17.98;53.07;101221.38;6159497;23;20027;-85
2022/09/04 07:03:39;;;;;;;6.35;4.82;;;;;;;18.34;51.83;101219.34;6158306;23;20013;-86
2022/09/04 07:06:19;;;;;;;5.93;3.55;;;;;;;18.71;51.60;101222.56;6188278;23;20017;-85
2022/09/04 07:09:14;;;;;;;6.13;3.58;;;;;;;18.91;50.72;101227.19;6160888;23;20056;-86
2022/09/04 07:12:14;;;;;;;5.70;4.18;;;;;;;19.15;49.74;101229.91;6156636;23;20030;-87
2022/09/04 07:15:37;;;;;;;6.18;4.00;;;;;;;19.23;49.01;101225.19;6162292;23;20033;-86
2022/09/04 07:18:18;;;;;;;5.68;3.97;;;;;;;19.42;48.70;101220.06;6156333;23;20144;-85
2022/09/04 07:21:14;;;;;;;6.93;3.45;;;;;;;19.44;48.58;101226.19;6156699;23;20021;-85
2022/09/04 07:24:31;;;;;;;5.15;4.03;;;;;;;19.60;47.93;101231.78;6156775;23;20017;-85
2022/09/04 07:27:35;;;;;;;7.07;3.63;;;;;;;19.73;47.87;101223.38;6131027;23;20421;-86
2022/09/04 07:30:14;;;;;;;5.32;3.55;;;;;;;20.35;46.63;101239.59;6155716;23;20025;-86
2022/09/04 07:32:56;;;;;;;6.43;4.15;;;;;;;20.67;45.70;101235.59;6132424;23;20025;-86
2022/09/04 07:35:43;;;;;;;8.13;4.28;;;;;;;20.69;45.63;101235.53;6157700;23;20390;-85
2022/09/04 07:38:39;;;;;;;6.78;3.63;;;;;;;21.08;45.04;101230.34;6131689;23;20029;-86
2022/09/04 07:41:30;;;;;;;7.72;3.90;;;;;;;21.37;44.44;101237.94;6132020;23;20021;-86
2022/09/04 07:44:40;;;;;;;4.38;3.45;;;;;;;21.48;43.70;101239.22;6130715;23;20026;-85
2022/09/04 07:47:26;;;;;;;4.25;3.35;;;;;;;22.23;43.12;101238.44;6141624;23;20026;-86
2022/09/04 07:50:09;;;;;;;5.35;3.60;;;;;;;22.51;41.98;101240.63;6130466;23;20028;-85
2022/09/04 07:52:49;;;;;;;3.28;2.90;;;;;;;22.71;42.36;101252.09;6130369;23;20146;-86
2022/09/04 07:55:41;;;;;;;5.95;3.28;;;;;;;22.68;41.37;101249.59;6129850;23;20449;-85
2022/09/04 07:58:23;;;;;;;6.53;3.70;;;;;;;22.66;41.24;101260.38;6129761;23;20327;-86
2022/09/04 08:01:11;;;;;;;5.53;3.38;;;;;;;22.85;41.49;101256.75;6154499;23;20028;-85
2022/09/04 08:03:48;;;;;;;4.03;3.05;;;;;;;23.76;39.99;101268.03;6156771;23;20101;-87
2022/09/04 08:06:53;;;;;;;8.60;3.53;;;;;;;24.22;38.36;101268.19;6153273;23;20018;-86
2022/09/04 08:09:48;;;;;;;4.45;2.88;;;;;;;24.73;38.18;101269.75;6152501;23;20104;-87
2022/09/04 08:12:44;;;;;;;5.80;3.70;;;;;;;25.25;36.64;101271.13;6135137;23;20029;-85
2022/09/04 08:15:42;;;;;;;5.25;2.95;;;;;;;25.64;36.04;101275.00;6184464;23;20013;-86
2022/09/04 08:18:36;;;;;;;6.80;3.30;;;;;;;26.06;35.59;101288.47;6134941;22;20029;-87
2022/09/04 08:21:28;;;;;;;5.00;3.67;;;;;;;26.16;35.27;101280.72;6137006;23;20032;-85
2022/09/04 08:24:35;;;;;;;3.13;2.92;;;;;;;26.34;34.97;101271.44;6136332;23;20017;-86
2022/09/04 08:27:23;;;;;;;5.00;3.08;;;;;;;26.65;34.57;101284.66;6187609;23;20435;-86
2022/09/04 08:30:12;;;;;;;6.32;2.92;;;;;;;26.35;34.06;101291.97;6137315;23;20024;-85
2022/09/04 08:33:29;;;;;;;7.00;3.58;;;;;;;25.96;35.13;101290.00;6136850;23;20029;-85
2022/09/04 08:36:26;;;;;;;3.03;2.63;;;;;;;25.82;35.25;101288.22;6159936;23;20075;-87
2022/09/04 08:39:10;;;;;;;3.72;3.42;;;;;;;26.28;34.68;101279.03;6136089;23;20021;-86
2022/09/04 08:42:12;;;;;;;;;;;;;;;26.58;34.01;101287.75;6163549;23;20027;-86
2022/09/04 08:45:12;;;;;;;6.03;4.78;;;;;;;27.13;33.41;101282.31;6135740;23;20012;-86
2022/09/04 08:48:25;;;;;;;6.22;5.30;;;;;;;27.26;33.29;101290.41;6135731;23;20021;-85
2022/09/04 08:51:15;;;;;;;7.63;3.40;;;;;;;27.66;32.78;101279.53;6136949;23;20064;-86
2022/09/04 08:54:24;;;;;;;6.50;3.78;;;;;;;28.02;32.54;101288.63;6161177;23;20112;-85
2022/09/04 08:57:39;;;;;;;3.13;2.88;;;;;;;28.20;31.57;101283.75;6143699;23;20441;-85
2022/09/04 09:00:19;;;;;;;4.55;2.75;;;;;;;28.32;31.56;101286.50;6135486;23;20359;-85
2022/09/04 09:03:33;;;;;;;3.97;3.20;;;;;;;28.82;31.07;101289.06;6137020;23;20444;-87
2022/09/04 09:06:50;;;;;;;;;;;;;;;29.37;29.98;101301.00;6162510;23;20088;-86
2022/09/04 09:09:57;;;;;;;7.68;2.90;;;;;;;29.66;29.26;101289.75;6137584;23;19927;-87
2022/09/04 09:13:14;;;;;;;3.85;3.38;;;;;;;30.15;28.82;101293.00;6187447;23;20121;-85
2022/09/04 09:16:09;;;;;;;6.40;3.53;;;;;;;29.90;29.07;101288.78;6183051;23;20048;-85
2022/09/04 09:19:00;;;;;;;3.28;3.08;;;;;;;29.66;29.81;101303.22;6135796;23;20120;-87
2022/09/04 09:21:48;;;;;;;3.17;2.75;;;;;;;29.25;30.13;101306.47;6133658;23;20025;-85
2022/09/04 09:24:47;;;;;;;5.18;2.90;;;;;;;30.01;29.30;101296.88;6159376;23;20062;-87
2022/09/04 09:27:41;;;;;;;3.20;3.00;;;;;;;30.37;28.59;101296.66;6166080;23;20035;-86
2022/09/04 09:30:23;;;;;;;7.68;3.33;;;;;;;30.24;28.30;101301.38;6187395;23;20024;-85
2022/09/04 09:33:34;;;;;;;2.90;2.60;;;;;;;30.45;28.40;101296.00;6137317;23;20029;-86
2022/09/04 09:36:41;;;;;;;3.30;3.03;;;;;;;30.75;27.91;101292.59;6186937;23;20043;-86
2022/09/04 09:39:36;;;;;;;3.10;2.80;;;;;;;30.55;28.21;101291.59;6160225;23;20021;-85
2022/09/04 09:42:49;;;;;;;4.75;3.13;;;;;;;30.87;28.00;101293.38;6137050;23;20116;-86
2022/09/04 09:45:47;;;;;;;3.38;3.17;;;;;;;30.68;28.02;101286.84;6161197;23;20053;-86
2022/09/04 09:49:08;;;;;;;3.15;2.85;;;;;;;30.89;27.80;101275.22;6159430;23;20029;-88
2022/09/04 09:52:19;;;;;;;4.18;2.60;;;;;;;31.80;27.07;101270.03;6133086;23;20052;-86
2022/09/04 09:55:25;;;;;;;2.75;2.55;;;;;;;30.98;27.95;101282.53;6186887;23;20346;-86
2022/09/04 09:58:18;;;;;;;2.90;2.72;;;;;;;31.14;27.31;101271.25;6161058;23;20013;-87
2022/09/04 10:01:04;;;;;;;3.35;2.85;;;;;;;32.04;26.50;101262.53;6134268;23;20093;-87
2022/09/04 10:04:10;;;;;;;3.20;2.45;;;;;;;32.70;26.24;101278.16;6158782;23;20020;-87
2022/09/04 10:06:52;;;;;;;7.20;2.92;;;;;;;33.29;24.90;101270.81;6159447;23;20028;-86
2022/09/04 10:09:50;;;;;;;3.78;2.97;;;;;;;33.46;24.84;101271.03;6159636;23;20009;-86
2022/09/04 10:13:02;;;;;;;2.97;2.63;;;;;;;33.71;24.23;101272.22;6159028;23;20025;-86
2022/09/04 10:15:47;;;;;;;2.83;2.63;;;;;;;33.44;24.95;101273.03;6135248;23;20025;-87
2022/09/04 10:18:58;;;;;;;3.30;2.78;;;;;;;33.93;24.13;101273.69;6187985;23;20059;-86
2022/09/04 10:21:58;;;;;;;3.17;2.88;;;;;;;33.95;24.06;101268.13;6137471;23;20136;-86
2022/09/04 10:25:02;;;;;;;4.55;2.70;;;;;;;34.53;23.54;101266.00;6160482;23;20021;-87
2022/09/04 10:28:19;;;;;;;3.03;2.63;;;;;;;34.79;23.44;101274.22;6186383;23;20026;-86
2022/09/04 10:31:39;;;;;;;2.58;2.35;;;;;;;34.90;22.99;101268.56;6160208;23;20021;-87
2022/09/04 10:34:47;;;;;;;8.73;2.78;;;;;;;35.78;22.30;101278.38;6078193;23;20028;-85
2022/09/04 10:37:51;;;;;;;3.90;2.50;;;;;;;36.74;20.93;101273.50;6141408;23;20017;-88
2022/09/04 10:40:51;;;;;;;3.33;2.85;;;;;;;36.21;21.39;101275.63;6139994;23;20013;-86
2022/09/04 10:44:01;;;;;;;3.42;2.67;;;;;;;35.51;22.24;101276.75;6165579;23;20020;-89
2022/09/04 10:47:04;;;;;;;3.33;2.67;;;;;;;34.32;23.70;101285.31;6165546;23;20040;-88
2022/09/04 10:49:52;;;;;;;2.72;2.40;;;;;;;34.09;23.77;101278.47;6163568;23;20045;-86
2022/09/04 10:52:51;;;;;;;3.10;2.55;;;;;;;33.85;24.00;101278.19;6164307;23;20426;-87
2022/09/04 10:55:30;;;;;;;3.00;2.80;;;;;;;33.97;24.00;101280.56;6140014;23;20021;-87
2022/09/04 10:58:40;;;;;;;4.07;2.55;;;;;;;34.07;24.09;101272.31;6192130;23;20343;-86
2022/09/04 11:01:44;;;;;;;2.83;2.63;;;;;;;34.55;23.36;101269.41;6163880;23;20055;-88
2022/09/04 11:04:51;;;;;;;2.47;2.38;;;;;;;35.28;22.71;101265.56;6139923;23;20021;-87
2022/09/04 11:07:36;;;;;;;8.32;2.78;;;;;;;35.89;22.17;101265.53;6166081;23;20017;-85
2022/09/04 11:10:38;;;;;;;2.53;2.38;;;;;;;35.83;22.12;101269.72;6165386;23;20013;-87
2022/09/04 11:13:23;;;;;;;5.20;2.75;;;;;;;35.77;21.95;101259.50;6162652;23;20361;-85
2022/09/04 11:16:34;;;;;;;3.20;2.63;;;;;;;35.77;22.16;101260.38;6163246;23;20017;-86
2022/09/04 11:19:35;;;;;;;2.70;2.47;;;;;;;35.48;22.79;101257.19;6146279;23;20092;-87
2022/09/04 11:22:33;;;;;;;3.78;2.45;;;;;;;35.70;22.47;101253.84;6162070;23;20005;-86
2022/09/04 11:26:04;;;;;;;3.17;2.50;;;;;;;36.23;21.36;101256.38;6161352;23;20021;-85
2022/09/04 11:28:50;;;;;;;4.95;3.13;;;;;;;36.45;21.32;101248.63;6138220;23;20116;-85
2022/09/04 11:31:52;;;;;;;4.28;2.47;;;;;;;36.45;21.00;101251.34;6153762;23;20017;-86
2022/09/04 11:34:56;;;;;;;2.63;2.42;;;;;;;36.42;21.13;101249.81;6157129;23;20021;-86
2022/09/04 11:37:44;;;;;;;3.22;2.20;;;;;;;36.83;20.92;101259.88;6180947;23;20020;-86
2022/09/04 11:40:54;;;;;;;3.20;2.35;;;;;;;37.40;20.27;101257.06;6156264;23;20020;-87
2022/09/04 11:43:59;;;;;;;3.42;2.13;;;;;;;38.16;19.51;101259.25;6181378;23;20025;-87
2022/09/04 11:47:07;;;;;;;4.45;2.70;;;;;;;38.05;19.66;101260.47;6178212;23;20001;-86
2022/09/04 11:50:15;;;;;;;2.20;2.00;;;;;;;38.45;18.91;101259.53;6155194;23;20017;-86
2022/09/04 11:52:51;;;;;;;3.08;2.17;;;;;;;37.85;20.03;101256.53;6132160;22;20304;-86
2022/09/04 11:55:49;;;;;;;3.13;2.33;;;;;;;37.26;20.75;101263.19;6181176;22;20009;-86
2022/09/04 11:58:48;;;;;;;3.15;1.95;;;;;;;38.25;19.68;101250.97;6179410;22;20009;-86
2022/09/04 12:01:51;;;;;;;3.75;2.45;;;;;;;38.25;19.37;101250.97;6156033;23;20045;-86
2022/09/04 12:04:36;;;;;;;;;;;;;;;38.29;19.41;101245.00;6131453;23;20022;-89
2022/09/04 12:07:33;;;;;;;2.95;2.40;;;;;;;38.33;19.62;101249.06;6134753;23;19916;-88
2022/09/04 12:10:44;;;;;;;3.83;3.30;;;;;;;38.40;19.15;101246.44;6131710;23;20026;-88
2022/09/04 12:14:10;;;;;;;1.85;1.70;;;;;;;38.43;19.22;101247.94;6157381;23;20056;-88
2022/09/04 12:17:14;;;;;;;2.92;2.10;;;;;;;38.36;19.01;101240.47;6156936;23;20045;-88
2022/09/04 12:20:22;;;;;;;2.88;2.20;;;;;;;37.96;19.50;101242.44;6130770;23;20021;-88
2022/09/04 12:23:24;;;;;;;3.17;2.45;;;;;;;37.67;19.65;101238.47;6155288;23;20017;-88
2022/09/04 12:26:02;;;;;;;2.75;2.20;;;;;;;37.57;19.86;101235.97;6130616;23;20401;-87
2022/09/04 12:29:29;;;;;;;2.10;1.90;;;;;;;37.14;20.36;101240.88;6131318;23;20017;-88
2022/09/04 12:32:46;;;;;;;1.95;1.55;;;;;;;36.75;20.28;101242.47;6111977;23;20026;-88
2022/09/04 12:36:05;;;;;;;1.70;1.60;;;;;;;36.78;20.65;101241.28;6107910;23;20021;-88
2022/09/04 12:41:53;;;;;;;;;;;;;;;37.24;20.37;101246.97;6205067;22;20028;-88
2022/09/04 12:44:58;;;;;;;1.92;1.77;;;;;;;37.89;19.58;101244.22;6207286;23;19903;-87
2022/09/04 12:48:08;;;;;;;1.85;1.65;;;;;;;38.89;18.86;101247.88;6246536;22;20035;-88
2022/09/04 12:51:24;;;;;;;4.00;2.05;;;;;;;39.86;18.00;101241.44;6219765;23;20078;-87
2022/09/04 12:54:12;;;;;;;1.90;1.80;;;;;;;40.00;17.85;101241.56;6215678;23;20076;-88
2022/09/04 12:56:48;;;;;;;4.00;2.00;;;;;;;40.14;17.87;101237.13;6221763;23;20363;-89
2022/09/04 12:59:53;;;;;;;4.95;1.60;;;;;;;41.05;16.77;101244.66;6224607;23;20031;-88
2022/09/04 13:02:57;;;;;;;1.75;1.65;;;;;;;40.75;17.29;101244.84;6254738;23;20016;-88
2022/09/04 13:06:02;;;;;;;1.65;1.40;;;;;;;41.44;16.22;101250.59;6175868;23;20036;-88
2022/09/04 13:09:09;;;;;;;2.25;2.15;;;;;;;41.34;16.41;101249.06;6221008;23;20024;-88
2022/09/04 13:12:04;;;;;;;2.03;1.92;;;;;;;40.38;16.98;101251.47;6246366;23;20032;-88
2022/09/04 13:15:18;;;;;;;2.85;1.85;;;;;;;38.74;18.70;101247.88;6197573;23;20044;-89
2022/09/04 13:18:23;;;;;;;2.00;1.88;;;;;;;38.22;19.21;101246.72;6223701;23;20027;-88
2022/09/04 13:21:48;;;;;;;2.45;1.95;;;;;;;37.56;19.53;101247.94;6216638;23;20075;-88
2022/09/04 13:25:00;;;;;;;1.88;1.77;;;;;;;36.85;20.63;101252.38;6215141;23;20016;-88
2022/09/04 13:28:18;;;;;;;2.22;1.85;;;;;;;35.80;21.53;101261.91;6214669;23;20016;-87
2022/09/04 13:31:04;;;;;;;1.83;1.65;;;;;;;36.04;21.15;101260.28;6168616;23;20031;-88
2022/09/04 13:34:00;;;;;;;5.20;1.95;;;;;;;36.33;21.12;101262.53;6218579;23;20013;-87
2022/09/04 13:37:34;;;;;;;2.58;1.50;;;;;;;36.69;20.81;101261.41;6214099;22;20029;-87
2022/09/04 13:41:08;;;;;;;1.63;1.52;;;;;;;37.24;20.83;101260.63;6173630;23;20204;-88
2022/09/04 13:44:39;;;;;;;1.40;1.27;;;;;;;37.69;20.21;101263.75;6216985;23;20040;-88
2022/09/04 13:47:34;;;;;;;2.67;1.42;;;;;;;36.94;20.49;101255.94;6129592;23;20040;-88
2022/09/04 13:50:46;;;;;;;1.25;1.15;;;;;;;36.72;20.76;101256.44;6126759;23;20021;-87